Sainte-Blandine, Canada
Current Conditions -  °F | °C
As of 11:00 PM on Sunday 21 Dec 2014 (Local Time) from CYYY Reporting Station
Light Snow Light Snow  
Wind Chill: 19°   Ceiling: 1600
Heat Index: 19°   Visibility: 30mi
Dew Point: 16°   Wind: 3mph
Humidity: 86%   Direction: 210°SSW
Pressure: 30.41"   Gusts: NA
Location:  48.35°N, 68.45°W
Report Text: CYYY 220400Z 21003KT 190V270 30SM -SN BKN016 M07/M09 A3041 RMK SC7 SLP303
Loading
Personal Weather Stations






























Interactive Weather Map New forecast layout! Learn more

10-Day Weather Forecast

Advertisements
Track Severe Weather on mobile